sensor_id;sensor_type;location;lat;lon;timestamp;P1;durP1;ratioP1;P2;durP2;ratioP2
3070;SDS011;1546;47.208;9.038;2023-05-07T00:00:33;4.35;;;1.90;;
3070;SDS011;1546;47.208;9.038;2023-05-07T00:03:02;4.15;;;2.00;;
3070;SDS011;1546;47.208;9.038;2023-05-07T00:05:29;4.13;;;1.50;;
3070;SDS011;1546;47.208;9.038;2023-05-07T00:07:56;5.43;;;1.67;;
3070;SDS011;1546;47.208;9.038;2023-05-07T00:10:23;3.58;;;1.23;;
3070;SDS011;1546;47.208;9.038;2023-05-07T00:12:50;6.20;;;1.50;;
3070;SDS011;1546;47.208;9.038;2023-05-07T00:15:17;4.85;;;1.45;;
3070;SDS011;1546;47.208;9.038;2023-05-07T00:17:44;7.05;;;1.60;;
3070;SDS011;1546;47.208;9.038;2023-05-07T00:20:12;4.90;;;1.40;;
3070;SDS011;1546;47.208;9.038;2023-05-07T00:22:39;3.80;;;1.20;;
3070;SDS011;1546;47.208;9.038;2023-05-07T00:25:07;4.40;;;1.48;;
3070;SDS011;1546;47.208;9.038;2023-05-07T00:27:35;6.05;;;1.88;;
3070;SDS011;1546;47.208;9.038;2023-05-07T00:30:02;6.15;;;2.05;;
3070;SDS011;1546;47.208;9.038;2023-05-07T00:32:29;7.32;;;1.85;;
3070;SDS011;1546;47.208;9.038;2023-05-07T00:34:56;8.68;;;2.00;;
3070;SDS011;1546;47.208;9.038;2023-05-07T00:37:24;7.93;;;2.65;;
3070;SDS011;1546;47.208;9.038;2023-05-07T00:39:51;4.88;;;1.50;;
3070;SDS011;1546;47.208;9.038;2023-05-07T00:42:18;3.97;;;1.80;;
3070;SDS011;1546;47.208;9.038;2023-05-07T00:44:46;4.05;;;1.48;;
3070;SDS011;1546;47.208;9.038;2023-05-07T00:47:12;6.75;;;2.47;;
3070;SDS011;1546;47.208;9.038;2023-05-07T00:49:41;4.72;;;1.90;;
3070;SDS011;1546;47.208;9.038;2023-05-07T00:52:09;3.83;;;1.65;;
3070;SDS011;1546;47.208;9.038;2023-05-07T00:54:41;4.15;;;1.95;;
3070;SDS011;1546;47.208;9.038;2023-05-07T00:57:08;4.65;;;1.70;;
3070;SDS011;1546;47.208;9.038;2023-05-07T00:59:36;4.47;;;1.83;;
3070;SDS011;1546;47.208;9.038;2023-05-07T01:02:04;4.85;;;1.52;;
3070;SDS011;1546;47.208;9.038;2023-05-07T01:04:31;3.67;;;1.25;;
3070;SDS011;1546;47.208;9.038;2023-05-07T01:06:58;4.25;;;1.98;;
3070;SDS011;1546;47.208;9.038;2023-05-07T01:09:27;8.13;;;2.03;;
3070;SDS011;1546;47.208;9.038;2023-05-07T01:11:56;4.10;;;1.73;;
3070;SDS011;1546;47.208;9.038;2023-05-07T01:14:24;5.75;;;1.70;;
3070;SDS011;1546;47.208;9.038;2023-05-07T01:16:52;4.40;;;1.80;;
3070;SDS011;1546;47.208;9.038;2023-05-07T01:19:19;4.93;;;1.50;;
3070;SDS011;1546;47.208;9.038;2023-05-07T01:21:47;5.68;;;1.77;;
3070;SDS011;1546;47.208;9.038;2023-05-07T01:24:16;3.97;;;1.52;;
3070;SDS011;1546;47.208;9.038;2023-05-07T01:26:43;4.40;;;1.92;;
3070;SDS011;1546;47.208;9.038;2023-05-07T01:29:10;4.30;;;1.58;;
3070;SDS011;1546;47.208;9.038;2023-05-07T01:31:37;5.63;;;1.67;;
3070;SDS011;1546;47.208;9.038;2023-05-07T01:34:06;4.40;;;1.80;;
3070;SDS011;1546;47.208;9.038;2023-05-07T01:36:34;4.13;;;1.75;;
3070;SDS011;1546;47.208;9.038;2023-05-07T01:39:05;4.10;;;1.70;;
3070;SDS011;1546;47.208;9.038;2023-05-07T01:41:34;4.68;;;1.70;;
3070;SDS011;1546;47.208;9.038;2023-05-07T01:44:01;3.95;;;1.50;;
3070;SDS011;1546;47.208;9.038;2023-05-07T01:46:29;5.40;;;1.80;;
3070;SDS011;1546;47.208;9.038;2023-05-07T01:48:59;4.35;;;1.88;;
3070;SDS011;1546;47.208;9.038;2023-05-07T01:51:26;4.45;;;1.50;;
3070;SDS011;1546;47.208;9.038;2023-05-07T01:53:53;4.03;;;1.75;;
3070;SDS011;1546;47.208;9.038;2023-05-07T01:56:20;4.85;;;1.90;;
3070;SDS011;1546;47.208;9.038;2023-05-07T01:58:48;4.50;;;2.05;;
3070;SDS011;1546;47.208;9.038;2023-05-07T02:01:17;5.32;;;2.30;;
3070;SDS011;1546;47.208;9.038;2023-05-07T02:03:44;5.80;;;2.30;;
3070;SDS011;1546;47.208;9.038;2023-05-07T02:06:11;4.55;;;2.00;;
3070;SDS011;1546;47.208;9.038;2023-05-07T02:08:37;18.70;;;2.25;;
3070;SDS011;1546;47.208;9.038;2023-05-07T02:11:04;5.03;;;2.60;;
3070;SDS011;1546;47.208;9.038;2023-05-07T02:13:32;4.22;;;2.28;;
3070;SDS011;1546;47.208;9.038;2023-05-07T02:16:01;7.10;;;2.40;;
3070;SDS011;1546;47.208;9.038;2023-05-07T02:18:28;5.90;;;2.17;;
3070;SDS011;1546;47.208;9.038;2023-05-07T02:20:55;5.45;;;2.25;;
3070;SDS011;1546;47.208;9.038;2023-05-07T02:23:22;4.65;;;2.22;;
3070;SDS011;1546;47.208;9.038;2023-05-07T02:25:49;4.95;;;2.00;;
3070;SDS011;1546;47.208;9.038;2023-05-07T02:28:17;4.55;;;1.48;;
3070;SDS011;1546;47.208;9.038;2023-05-07T02:30:43;5.43;;;1.73;;
3070;SDS011;1546;47.208;9.038;2023-05-07T02:33:12;4.43;;;2.08;;
3070;SDS011;1546;47.208;9.038;2023-05-07T02:35:39;5.10;;;1.58;;
3070;SDS011;1546;47.208;9.038;2023-05-07T02:38:06;4.43;;;1.40;;
3070;SDS011;1546;47.208;9.038;2023-05-07T02:40:35;4.63;;;1.90;;
3070;SDS011;1546;47.208;9.038;2023-05-07T02:43:03;5.60;;;2.00;;
3070;SDS011;1546;47.208;9.038;2023-05-07T02:45:31;4.25;;;1.80;;
3070;SDS011;1546;47.208;9.038;2023-05-07T02:47:58;3.85;;;1.40;;
3070;SDS011;1546;47.208;9.038;2023-05-07T02:50:26;4.20;;;1.90;;
3070;SDS011;1546;47.208;9.038;2023-05-07T02:52:53;7.70;;;1.92;;
3070;SDS011;1546;47.208;9.038;2023-05-07T02:55:20;4.28;;;1.70;;
3070;SDS011;1546;47.208;9.038;2023-05-07T02:57:47;4.95;;;2.10;;
3070;SDS011;1546;47.208;9.038;2023-05-07T03:00:14;6.20;;;2.67;;
3070;SDS011;1546;47.208;9.038;2023-05-07T03:02:43;6.47;;;2.45;;
3070;SDS011;1546;47.208;9.038;2023-05-07T03:05:10;7.35;;;2.03;;
3070;SDS011;1546;47.208;9.038;2023-05-07T03:07:39;4.72;;;2.13;;
3070;SDS011;1546;47.208;9.038;2023-05-07T03:10:10;8.98;;;2.20;;
3070;SDS011;1546;47.208;9.038;2023-05-07T03:12:37;5.50;;;1.80;;
3070;SDS011;1546;47.208;9.038;2023-05-07T03:15:04;4.43;;;1.90;;
3070;SDS011;1546;47.208;9.038;2023-05-07T03:17:32;5.72;;;2.15;;
3070;SDS011;1546;47.208;9.038;2023-05-07T03:19:58;7.30;;;1.88;;
3070;SDS011;1546;47.208;9.038;2023-05-07T03:22:25;4.15;;;1.35;;
3070;SDS011;1546;47.208;9.038;2023-05-07T03:24:54;5.40;;;1.80;;
3070;SDS011;1546;47.208;9.038;2023-05-07T03:27:20;5.28;;;1.65;;
3070;SDS011;1546;47.208;9.038;2023-05-07T03:29:47;4.55;;;1.90;;
3070;SDS011;1546;47.208;9.038;2023-05-07T03:32:14;5.20;;;1.98;;
3070;SDS011;1546;47.208;9.038;2023-05-07T03:34:41;9.90;;;1.73;;
3070;SDS011;1546;47.208;9.038;2023-05-07T03:37:08;4.32;;;1.70;;
3070;SDS011;1546;47.208;9.038;2023-05-07T03:39:34;4.30;;;1.40;;
3070;SDS011;1546;47.208;9.038;2023-05-07T03:42:03;4.78;;;1.92;;
3070;SDS011;1546;47.208;9.038;2023-05-07T03:44:30;4.45;;;1.63;;
3070;SDS011;1546;47.208;9.038;2023-05-07T03:46:56;4.35;;;1.40;;
3070;SDS011;1546;47.208;9.038;2023-05-07T03:49:23;3.88;;;1.50;;
3070;SDS011;1546;47.208;9.038;2023-05-07T03:51:50;5.43;;;2.85;;
3070;SDS011;1546;47.208;9.038;2023-05-07T03:54:17;4.95;;;2.30;;
3070;SDS011;1546;47.208;9.038;2023-05-07T03:56:44;6.35;;;1.85;;
3070;SDS011;1546;47.208;9.038;2023-05-07T03:59:13;4.68;;;1.58;;
3070;SDS011;1546;47.208;9.038;2023-05-07T04:01:40;4.05;;;1.70;;
3070;SDS011;1546;47.208;9.038;2023-05-07T04:04:07;14.02;;;2.55;;
3070;SDS011;1546;47.208;9.038;2023-05-07T04:06:34;4.90;;;2.17;;
3070;SDS011;1546;47.208;9.038;2023-05-07T04:09:01;6.00;;;2.08;;
3070;SDS011;1546;47.208;9.038;2023-05-07T04:11:27;5.07;;;2.03;;
3070;SDS011;1546;47.208;9.038;2023-05-07T04:13:54;6.65;;;2.55;;
3070;SDS011;1546;47.208;9.038;2023-05-07T04:16:22;4.75;;;2.20;;
3070;SDS011;1546;47.208;9.038;2023-05-07T04:18:49;4.00;;;1.85;;
3070;SDS011;1546;47.208;9.038;2023-05-07T04:21:16;6.55;;;2.17;;
3070;SDS011;1546;47.208;9.038;2023-05-07T04:23:45;4.20;;;1.98;;
3070;SDS011;1546;47.208;9.038;2023-05-07T04:26:12;5.15;;;1.90;;
3070;SDS011;1546;47.208;9.038;2023-05-07T04:28:39;5.15;;;2.03;;
3070;SDS011;1546;47.208;9.038;2023-05-07T04:31:06;5.68;;;1.85;;
3070;SDS011;1546;47.208;9.038;2023-05-07T04:33:35;7.13;;;2.00;;
3070;SDS011;1546;47.208;9.038;2023-05-07T04:36:02;4.80;;;1.42;;
3070;SDS011;1546;47.208;9.038;2023-05-07T04:38:29;5.85;;;2.22;;
3070;SDS011;1546;47.208;9.038;2023-05-07T04:40:56;4.47;;;1.55;;
3070;SDS011;1546;47.208;9.038;2023-05-07T04:43:23;8.18;;;2.30;;
3070;SDS011;1546;47.208;9.038;2023-05-07T04:45:50;4.93;;;1.92;;
3070;SDS011;1546;47.208;9.038;2023-05-07T04:48:17;4.57;;;1.73;;
3070;SDS011;1546;47.208;9.038;2023-05-07T04:50:48;5.45;;;1.73;;
3070;SDS011;1546;47.208;9.038;2023-05-07T04:53:15;3.95;;;1.60;;
3070;SDS011;1546;47.208;9.038;2023-05-07T04:55:42;3.95;;;1.25;;
3070;SDS011;1546;47.208;9.038;2023-05-07T04:58:10;3.70;;;1.40;;
3070;SDS011;1546;47.208;9.038;2023-05-07T05:00:37;4.47;;;1.55;;
3070;SDS011;1546;47.208;9.038;2023-05-07T05:03:05;3.92;;;1.42;;
3070;SDS011;1546;47.208;9.038;2023-05-07T05:05:32;6.45;;;2.30;;
3070;SDS011;1546;47.208;9.038;2023-05-07T05:08:00;4.25;;;1.50;;
3070;SDS011;1546;47.208;9.038;2023-05-07T05:10:27;4.68;;;2.00;;
3070;SDS011;1546;47.208;9.038;2023-05-07T05:12:54;4.93;;;2.00;;
3070;SDS011;1546;47.208;9.038;2023-05-07T05:15:21;6.70;;;2.15;;
3070;SDS011;1546;47.208;9.038;2023-05-07T05:17:48;3.95;;;1.48;;
3070;SDS011;1546;47.208;9.038;2023-05-07T05:20:15;6.05;;;1.67;;
3070;SDS011;1546;47.208;9.038;2023-05-07T05:22:42;5.30;;;1.70;;
3070;SDS011;1546;47.208;9.038;2023-05-07T05:25:11;5.05;;;1.75;;
3070;SDS011;1546;47.208;9.038;2023-05-07T05:27:37;4.15;;;1.48;;
3070;SDS011;1546;47.208;9.038;2023-05-07T05:30:05;4.70;;;1.75;;
3070;SDS011;1546;47.208;9.038;2023-05-07T05:32:32;4.38;;;1.55;;
3070;SDS011;1546;47.208;9.038;2023-05-07T05:34:59;5.20;;;1.70;;
3070;SDS011;1546;47.208;9.038;2023-05-07T05:37:26;6.05;;;1.60;;
3070;SDS011;1546;47.208;9.038;2023-05-07T05:39:55;6.03;;;1.73;;
3070;SDS011;1546;47.208;9.038;2023-05-07T05:42:23;6.32;;;1.60;;
3070;SDS011;1546;47.208;9.038;2023-05-07T05:44:50;6.93;;;2.50;;
3070;SDS011;1546;47.208;9.038;2023-05-07T05:47:17;5.05;;;1.77;;
3070;SDS011;1546;47.208;9.038;2023-05-07T05:49:44;6.18;;;2.33;;
3070;SDS011;1546;47.208;9.038;2023-05-07T05:52:11;7.38;;;1.67;;
3070;SDS011;1546;47.208;9.038;2023-05-07T05:54:39;5.43;;;1.60;;
3070;SDS011;1546;47.208;9.038;2023-05-07T05:57:06;6.60;;;2.78;;
3070;SDS011;1546;47.208;9.038;2023-05-07T05:59:35;4.55;;;1.80;;
3070;SDS011;1546;47.208;9.038;2023-05-07T06:02:02;4.50;;;1.95;;
3070;SDS011;1546;47.208;9.038;2023-05-07T06:04:29;5.50;;;2.00;;
3070;SDS011;1546;47.208;9.038;2023-05-07T06:06:55;6.18;;;2.25;;
3070;SDS011;1546;47.208;9.038;2023-05-07T06:09:22;5.20;;;2.20;;
3070;SDS011;1546;47.208;9.038;2023-05-07T06:11:49;6.35;;;2.55;;
3070;SDS011;1546;47.208;9.038;2023-05-07T06:14:16;4.60;;;1.85;;
3070;SDS011;1546;47.208;9.038;2023-05-07T06:16:44;4.78;;;1.58;;
3070;SDS011;1546;47.208;9.038;2023-05-07T06:19:11;6.57;;;1.92;;
3070;SDS011;1546;47.208;9.038;2023-05-07T06:21:38;4.70;;;1.98;;
3070;SDS011;1546;47.208;9.038;2023-05-07T06:24:06;5.50;;;1.98;;
3070;SDS011;1546;47.208;9.038;2023-05-07T06:26:33;10.43;;;2.38;;
3070;SDS011;1546;47.208;9.038;2023-05-07T06:29:00;6.72;;;2.05;;
3070;SDS011;1546;47.208;9.038;2023-05-07T06:31:29;4.70;;;1.80;;
3070;SDS011;1546;47.208;9.038;2023-05-07T06:33:58;5.18;;;2.00;;
3070;SDS011;1546;47.208;9.038;2023-05-07T06:36:27;4.80;;;1.80;;
3070;SDS011;1546;47.208;9.038;2023-05-07T06:38:54;4.05;;;1.75;;
3070;SDS011;1546;47.208;9.038;2023-05-07T06:41:21;5.05;;;2.25;;
3070;SDS011;1546;47.208;9.038;2023-05-07T06:43:47;5.15;;;1.40;;
3070;SDS011;1546;47.208;9.038;2023-05-07T06:46:15;4.03;;;1.48;;
3070;SDS011;1546;47.208;9.038;2023-05-07T06:48:42;5.03;;;2.00;;
3070;SDS011;1546;47.208;9.038;2023-05-07T06:51:10;4.50;;;1.67;;
3070;SDS011;1546;47.208;9.038;2023-05-07T06:53:37;5.65;;;2.08;;
3070;SDS011;1546;47.208;9.038;2023-05-07T06:56:04;4.72;;;1.70;;
3070;SDS011;1546;47.208;9.038;2023-05-07T06:58:31;5.00;;;1.90;;
3070;SDS011;1546;47.208;9.038;2023-05-07T07:00:59;5.53;;;1.65;;
3070;SDS011;1546;47.208;9.038;2023-05-07T07:03:26;4.10;;;1.83;;
3070;SDS011;1546;47.208;9.038;2023-05-07T07:05:53;4.68;;;1.90;;
3070;SDS011;1546;47.208;9.038;2023-05-07T07:08:22;6.25;;;1.50;;
3070;SDS011;1546;47.208;9.038;2023-05-07T07:10:49;8.48;;;1.75;;
3070;SDS011;1546;47.208;9.038;2023-05-07T07:13:16;5.65;;;1.80;;
3070;SDS011;1546;47.208;9.038;2023-05-07T07:15:43;5.15;;;1.90;;
3070;SDS011;1546;47.208;9.038;2023-05-07T07:18:10;4.30;;;1.83;;
3070;SDS011;1546;47.208;9.038;2023-05-07T07:20:39;4.80;;;1.70;;
3070;SDS011;1546;47.208;9.038;2023-05-07T07:23:06;4.82;;;2.15;;
3070;SDS011;1546;47.208;9.038;2023-05-07T07:25:34;4.63;;;1.70;;
3070;SDS011;1546;47.208;9.038;2023-05-07T07:28:01;4.53;;;1.60;;
3070;SDS011;1546;47.208;9.038;2023-05-07T07:30:28;4.50;;;1.50;;
3070;SDS011;1546;47.208;9.038;2023-05-07T07:32:55;4.78;;;2.08;;
3070;SDS011;1546;47.208;9.038;2023-05-07T07:35:27;4.00;;;1.90;;
3070;SDS011;1546;47.208;9.038;2023-05-07T07:37:54;8.77;;;2.00;;
3070;SDS011;1546;47.208;9.038;2023-05-07T07:40:21;5.55;;;2.00;;
3070;SDS011;1546;47.208;9.038;2023-05-07T07:42:49;5.40;;;1.92;;
3070;SDS011;1546;47.208;9.038;2023-05-07T07:45:16;4.80;;;1.75;;
3070;SDS011;1546;47.208;9.038;2023-05-07T07:47:43;4.80;;;2.17;;
3070;SDS011;1546;47.208;9.038;2023-05-07T07:50:10;4.25;;;1.65;;
3070;SDS011;1546;47.208;9.038;2023-05-07T07:52:37;5.75;;;2.17;;
3070;SDS011;1546;47.208;9.038;2023-05-07T07:55:05;5.40;;;1.30;;
3070;SDS011;1546;47.208;9.038;2023-05-07T07:57:32;12.48;;;1.60;;
3070;SDS011;1546;47.208;9.038;2023-05-07T08:00:00;4.97;;;1.80;;
3070;SDS011;1546;47.208;9.038;2023-05-07T08:02:28;7.03;;;2.08;;
3070;SDS011;1546;47.208;9.038;2023-05-07T08:04:55;6.25;;;1.83;;
3070;SDS011;1546;47.208;9.038;2023-05-07T08:07:22;4.63;;;1.45;;
3070;SDS011;1546;47.208;9.038;2023-05-07T08:09:49;5.15;;;2.00;;
3070;SDS011;1546;47.208;9.038;2023-05-07T08:12:15;4.20;;;1.58;;
3070;SDS011;1546;47.208;9.038;2023-05-07T08:14:42;6.90;;;2.10;;
3070;SDS011;1546;47.208;9.038;2023-05-07T08:17:10;7.70;;;2.20;;
3070;SDS011;1546;47.208;9.038;2023-05-07T08:19:40;4.63;;;1.58;;
3070;SDS011;1546;47.208;9.038;2023-05-07T08:22:07;6.88;;;1.95;;
3070;SDS011;1546;47.208;9.038;2023-05-07T08:24:35;4.43;;;1.80;;
3070;SDS011;1546;47.208;9.038;2023-05-07T08:27:02;6.28;;;1.60;;
3070;SDS011;1546;47.208;9.038;2023-05-07T08:29:29;4.60;;;1.67;;
3070;SDS011;1546;47.208;9.038;2023-05-07T08:31:56;6.57;;;2.03;;
3070;SDS011;1546;47.208;9.038;2023-05-07T08:34:24;5.60;;;1.83;;
3070;SDS011;1546;47.208;9.038;2023-05-07T08:36:51;5.57;;;1.83;;
3070;SDS011;1546;47.208;9.038;2023-05-07T08:39:18;5.10;;;1.92;;
3070;SDS011;1546;47.208;9.038;2023-05-07T08:41:45;4.63;;;1.57;;
3070;SDS011;1546;47.208;9.038;2023-05-07T08:44:14;5.85;;;2.15;;
3070;SDS011;1546;47.208;9.038;2023-05-07T08:46:43;3.80;;;1.30;;
3070;SDS011;1546;47.208;9.038;2023-05-07T08:49:13;4.23;;;1.40;;
3070;SDS011;1546;47.208;9.038;2023-05-07T08:51:42;7.50;;;1.70;;
3070;SDS011;1546;47.208;9.038;2023-05-07T08:54:09;8.30;;;1.57;;
3070;SDS011;1546;47.208;9.038;2023-05-07T08:56:38;5.50;;;1.67;;
3070;SDS011;1546;47.208;9.038;2023-05-07T08:59:05;4.77;;;1.47;;
3070;SDS011;1546;47.208;9.038;2023-05-07T09:01:32;3.70;;;1.37;;
3070;SDS011;1546;47.208;9.038;2023-05-07T09:04:01;4.97;;;2.00;;
3070;SDS011;1546;47.208;9.038;2023-05-07T09:06:28;4.00;;;1.70;;
3070;SDS011;1546;47.208;9.038;2023-05-07T09:08:56;7.17;;;1.90;;
3070;SDS011;1546;47.208;9.038;2023-05-07T09:11:26;6.63;;;2.27;;
3070;SDS011;1546;47.208;9.038;2023-05-07T09:13:53;5.40;;;1.77;;
3070;SDS011;1546;47.208;9.038;2023-05-07T09:16:23;4.40;;;1.70;;
3070;SDS011;1546;47.208;9.038;2023-05-07T09:18:51;5.13;;;2.13;;
3070;SDS011;1546;47.208;9.038;2023-05-07T09:21:19;4.57;;;1.80;;
3070;SDS011;1546;47.208;9.038;2023-05-07T09:23:47;4.70;;;1.57;;
3070;SDS011;1546;47.208;9.038;2023-05-07T09:26:17;4.00;;;1.90;;
3070;SDS011;1546;47.208;9.038;2023-05-07T09:28:47;4.23;;;1.40;;
3070;SDS011;1546;47.208;9.038;2023-05-07T09:31:13;3.97;;;1.58;;
3070;SDS011;1546;47.208;9.038;2023-05-07T09:33:40;4.00;;;1.25;;
3070;SDS011;1546;47.208;9.038;2023-05-07T09:36:08;4.50;;;1.40;;
3070;SDS011;1546;47.208;9.038;2023-05-07T09:38:36;4.73;;;1.77;;
3070;SDS011;1546;47.208;9.038;2023-05-07T09:41:04;4.68;;;2.05;;
3070;SDS011;1546;47.208;9.038;2023-05-07T09:43:34;4.10;;;1.40;;
3070;SDS011;1546;47.208;9.038;2023-05-07T09:46:02;4.17;;;1.37;;
3070;SDS011;1546;47.208;9.038;2023-05-07T09:48:31;3.87;;;1.60;;
3070;SDS011;1546;47.208;9.038;2023-05-07T09:51:02;5.50;;;1.30;;
3070;SDS011;1546;47.208;9.038;2023-05-07T09:53:35;3.90;;;1.37;;
3070;SDS011;1546;47.208;9.038;2023-05-07T09:56:04;5.30;;;1.50;;
3070;SDS011;1546;47.208;9.038;2023-05-07T09:58:31;4.43;;;1.80;;
3070;SDS011;1546;47.208;9.038;2023-05-07T10:01:03;5.13;;;2.10;;
3070;SDS011;1546;47.208;9.038;2023-05-07T10:03:30;7.40;;;1.93;;
3070;SDS011;1546;47.208;9.038;2023-05-07T10:05:59;4.10;;;1.30;;
3070;SDS011;1546;47.208;9.038;2023-05-07T10:08:27;4.90;;;1.50;;
3070;SDS011;1546;47.208;9.038;2023-05-07T10:10:56;5.30;;;1.60;;
3070;SDS011;1546;47.208;9.038;2023-05-07T10:13:23;8.40;;;2.50;;
3070;SDS011;1546;47.208;9.038;2023-05-07T10:15:52;4.00;;;1.40;;
3070;SDS011;1546;47.208;9.038;2023-05-07T10:18:19;5.03;;;2.00;;
3070;SDS011;1546;47.208;9.038;2023-05-07T10:20:48;5.67;;;1.43;;
3070;SDS011;1546;47.208;9.038;2023-05-07T10:23:20;3.93;;;1.20;;
3070;SDS011;1546;47.208;9.038;2023-05-07T10:25:50;3.60;;;1.20;;
3070;SDS011;1546;47.208;9.038;2023-05-07T10:28:19;4.60;;;1.40;;
3070;SDS011;1546;47.208;9.038;2023-05-07T10:30:55;8.30;;;1.50;;
3070;SDS011;1546;47.208;9.038;2023-05-07T10:33:30;5.93;;;1.60;;
3070;SDS011;1546;47.208;9.038;2023-05-07T10:35:59;4.53;;;1.43;;
3070;SDS011;1546;47.208;9.038;2023-05-07T10:38:29;4.63;;;1.70;;
3070;SDS011;1546;47.208;9.038;2023-05-07T10:40:56;6.10;;;1.53;;
3070;SDS011;1546;47.208;9.038;2023-05-07T10:43:24;4.10;;;1.30;;
3070;SDS011;1546;47.208;9.038;2023-05-07T10:46:11;5.80;;;1.87;;
3070;SDS011;1546;47.208;9.038;2023-05-07T10:51:37;5.20;;;1.37;;
3070;SDS011;1546;47.208;9.038;2023-05-07T10:54:21;4.10;;;1.23;;
3070;SDS011;1546;47.208;9.038;2023-05-07T10:56:49;3.50;;;1.00;;
3070;SDS011;1546;47.208;9.038;2023-05-07T10:59:35;4.27;;;1.47;;
3070;SDS011;1546;47.208;9.038;2023-05-07T11:02:08;5.27;;;1.83;;
3070;SDS011;1546;47.208;9.038;2023-05-07T11:04:36;4.27;;;1.43;;
3070;SDS011;1546;47.208;9.038;2023-05-07T11:09:59;4.07;;;1.10;;
3070;SDS011;1546;47.208;9.038;2023-05-07T11:15:35;3.70;;;1.20;;
3070;SDS011;1546;47.208;9.038;2023-05-07T11:18:10;4.50;;;1.73;;
3070;SDS011;1546;47.208;9.038;2023-05-07T11:20:48;4.53;;;1.43;;
3070;SDS011;1546;47.208;9.038;2023-05-07T11:26:24;4.40;;;1.40;;
3070;SDS011;1546;47.208;9.038;2023-05-07T11:28:52;3.80;;;1.07;;
3070;SDS011;1546;47.208;9.038;2023-05-07T11:31:20;3.80;;;1.00;;
3070;SDS011;1546;47.208;9.038;2023-05-07T11:33:51;3.40;;;1.00;;
3070;SDS011;1546;47.208;9.038;2023-05-07T11:36:18;3.70;;;1.20;;
3070;SDS011;1546;47.208;9.038;2023-05-07T11:38:46;3.90;;;1.30;;
3070;SDS011;1546;47.208;9.038;2023-05-07T11:41:13;4.03;;;1.17;;
3070;SDS011;1546;47.208;9.038;2023-05-07T11:43:53;3.80;;;1.17;;
3070;SDS011;1546;47.208;9.038;2023-05-07T11:46:24;4.50;;;1.30;;
3070;SDS011;1546;47.208;9.038;2023-05-07T11:48:52;5.47;;;1.23;;
3070;SDS011;1546;47.208;9.038;2023-05-07T11:51:20;3.90;;;1.20;;
3070;SDS011;1546;47.208;9.038;2023-05-07T11:53:48;7.13;;;1.60;;
3070;SDS011;1546;47.208;9.038;2023-05-07T11:56:16;5.03;;;1.37;;
3070;SDS011;1546;47.208;9.038;2023-05-07T11:58:44;3.43;;;1.10;;
3070;SDS011;1546;47.208;9.038;2023-05-07T12:01:12;3.70;;;1.13;;
3070;SDS011;1546;47.208;9.038;2023-05-07T12:03:41;3.97;;;1.10;;
3070;SDS011;1546;47.208;9.038;2023-05-07T12:06:11;3.40;;;1.30;;
3070;SDS011;1546;47.208;9.038;2023-05-07T12:08:40;3.60;;;1.00;;
3070;SDS011;1546;47.208;9.038;2023-05-07T12:11:07;3.60;;;1.13;;
3070;SDS011;1546;47.208;9.038;2023-05-07T12:13:36;6.93;;;1.30;;
3070;SDS011;1546;47.208;9.038;2023-05-07T12:16:03;4.87;;;1.10;;
3070;SDS011;1546;47.208;9.038;2023-05-07T12:18:32;3.40;;;1.00;;
3070;SDS011;1546;47.208;9.038;2023-05-07T12:21:04;3.33;;;0.90;;
3070;SDS011;1546;47.208;9.038;2023-05-07T12:23:34;5.30;;;1.10;;
3070;SDS011;1546;47.208;9.038;2023-05-07T12:26:02;4.27;;;1.00;;
3070;SDS011;1546;47.208;9.038;2023-05-07T12:28:29;3.97;;;1.07;;
3070;SDS011;1546;47.208;9.038;2023-05-07T12:31:03;4.63;;;1.23;;
3070;SDS011;1546;47.208;9.038;2023-05-07T12:33:30;3.50;;;0.97;;
3070;SDS011;1546;47.208;9.038;2023-05-07T12:35:58;6.03;;;1.27;;
3070;SDS011;1546;47.208;9.038;2023-05-07T12:38:32;3.73;;;1.00;;
3070;SDS011;1546;47.208;9.038;2023-05-07T12:41:03;3.70;;;1.03;;
3070;SDS011;1546;47.208;9.038;2023-05-07T12:43:32;4.03;;;1.20;;
3070;SDS011;1546;47.208;9.038;2023-05-07T12:45:59;4.40;;;1.10;;
3070;SDS011;1546;47.208;9.038;2023-05-07T12:48:29;3.67;;;1.13;;
3070;SDS011;1546;47.208;9.038;2023-05-07T12:50:57;3.83;;;1.20;;
3070;SDS011;1546;47.208;9.038;2023-05-07T12:53:25;5.73;;;1.23;;
3070;SDS011;1546;47.208;9.038;2023-05-07T12:55:55;4.90;;;1.20;;
3070;SDS011;1546;47.208;9.038;2023-05-07T12:58:24;4.53;;;1.50;;
3070;SDS011;1546;47.208;9.038;2023-05-07T13:00:53;4.37;;;1.30;;
3070;SDS011;1546;47.208;9.038;2023-05-07T13:03:27;3.50;;;1.10;;
3070;SDS011;1546;47.208;9.038;2023-05-07T13:05:55;3.67;;;0.90;;
3070;SDS011;1546;47.208;9.038;2023-05-07T13:08:28;5.00;;;1.20;;
3070;SDS011;1546;47.208;9.038;2023-05-07T13:10:58;4.70;;;1.33;;
3070;SDS011;1546;47.208;9.038;2023-05-07T13:13:28;4.27;;;1.13;;
3070;SDS011;1546;47.208;9.038;2023-05-07T13:15:55;3.50;;;1.07;;
3070;SDS011;1546;47.208;9.038;2023-05-07T13:18:23;4.13;;;1.10;;
3070;SDS011;1546;47.208;9.038;2023-05-07T13:20:50;4.30;;;1.40;;
3070;SDS011;1546;47.208;9.038;2023-05-07T13:23:17;4.87;;;1.87;;
3070;SDS011;1546;47.208;9.038;2023-05-07T13:25:44;4.67;;;1.53;;
3070;SDS011;1546;47.208;9.038;2023-05-07T13:28:13;5.60;;;1.60;;
3070;SDS011;1546;47.208;9.038;2023-05-07T13:30:39;4.70;;;1.50;;
3070;SDS011;1546;47.208;9.038;2023-05-07T13:33:06;6.17;;;1.60;;
3070;SDS011;1546;47.208;9.038;2023-05-07T13:35:34;4.83;;;1.60;;
3070;SDS011;1546;47.208;9.038;2023-05-07T13:38:01;6.10;;;1.47;;
3070;SDS011;1546;47.208;9.038;2023-05-07T13:40:28;4.73;;;1.57;;
3070;SDS011;1546;47.208;9.038;2023-05-07T13:42:56;6.70;;;1.80;;
3070;SDS011;1546;47.208;9.038;2023-05-07T13:45:26;4.70;;;1.70;;
3070;SDS011;1546;47.208;9.038;2023-05-07T13:47:54;3.60;;;1.37;;
3070;SDS011;1546;47.208;9.038;2023-05-07T13:50:22;4.90;;;1.60;;
3070;SDS011;1546;47.208;9.038;2023-05-07T13:52:51;4.93;;;1.80;;
3070;SDS011;1546;47.208;9.038;2023-05-07T13:55:19;5.73;;;2.27;;
3070;SDS011;1546;47.208;9.038;2023-05-07T13:57:46;4.00;;;1.83;;
3070;SDS011;1546;47.208;9.038;2023-05-07T14:00:13;4.73;;;1.73;;
3070;SDS011;1546;47.208;9.038;2023-05-07T14:02:42;5.10;;;2.00;;
3070;SDS011;1546;47.208;9.038;2023-05-07T14:05:09;5.70;;;2.50;;
3070;SDS011;1546;47.208;9.038;2023-05-07T14:07:38;5.80;;;2.67;;
3070;SDS011;1546;47.208;9.038;2023-05-07T14:10:05;10.27;;;3.00;;
3070;SDS011;1546;47.208;9.038;2023-05-07T14:12:33;6.50;;;3.37;;
3070;SDS011;1546;47.208;9.038;2023-05-07T14:15:00;6.37;;;2.77;;
3070;SDS011;1546;47.208;9.038;2023-05-07T14:17:27;4.83;;;2.60;;
3070;SDS011;1546;47.208;9.038;2023-05-07T14:19:55;5.80;;;3.20;;
3070;SDS011;1546;47.208;9.038;2023-05-07T14:22:23;6.00;;;2.93;;
3070;SDS011;1546;47.208;9.038;2023-05-07T14:24:50;6.07;;;3.10;;
3070;SDS011;1546;47.208;9.038;2023-05-07T14:27:17;6.33;;;3.50;;
3070;SDS011;1546;47.208;9.038;2023-05-07T14:29:44;7.33;;;3.33;;
3070;SDS011;1546;47.208;9.038;2023-05-07T14:32:15;8.27;;;3.97;;
3070;SDS011;1546;47.208;9.038;2023-05-07T14:34:43;7.53;;;3.77;;
3070;SDS011;1546;47.208;9.038;2023-05-07T14:37:11;6.13;;;3.67;;
3070;SDS011;1546;47.208;9.038;2023-05-07T14:39:38;9.33;;;4.43;;
3070;SDS011;1546;47.208;9.038;2023-05-07T14:42:05;7.60;;;4.43;;
3070;SDS011;1546;47.208;9.038;2023-05-07T14:44:32;5.83;;;3.50;;
3070;SDS011;1546;47.208;9.038;2023-05-07T14:46:59;6.33;;;4.13;;
3070;SDS011;1546;47.208;9.038;2023-05-07T14:49:26;8.83;;;4.13;;
3070;SDS011;1546;47.208;9.038;2023-05-07T14:51:53;8.00;;;2.90;;
3070;SDS011;1546;47.208;9.038;2023-05-07T14:54:24;7.43;;;3.40;;
3070;SDS011;1546;47.208;9.038;2023-05-07T14:56:51;5.80;;;2.87;;
3070;SDS011;1546;47.208;9.038;2023-05-07T14:59:18;9.30;;;3.37;;
3070;SDS011;1546;47.208;9.038;2023-05-07T15:01:46;5.63;;;3.17;;
3070;SDS011;1546;47.208;9.038;2023-05-07T15:04:13;5.40;;;2.87;;
3070;SDS011;1546;47.208;9.038;2023-05-07T15:06:40;6.13;;;2.40;;
3070;SDS011;1546;47.208;9.038;2023-05-07T15:09:07;5.70;;;2.07;;
3070;SDS011;1546;47.208;9.038;2023-05-07T15:11:36;5.50;;;2.10;;
3070;SDS011;1546;47.208;9.038;2023-05-07T15:14:03;6.20;;;1.73;;
3070;SDS011;1546;47.208;9.038;2023-05-07T15:16:30;4.90;;;1.70;;
3070;SDS011;1546;47.208;9.038;2023-05-07T15:18:57;4.17;;;1.90;;
3070;SDS011;1546;47.208;9.038;2023-05-07T15:21:24;4.20;;;1.70;;
3070;SDS011;1546;47.208;9.038;2023-05-07T15:23:51;4.70;;;2.30;;
3070;SDS011;1546;47.208;9.038;2023-05-07T15:26:18;4.70;;;2.05;;
3070;SDS011;1546;47.208;9.038;2023-05-07T15:28:46;5.28;;;2.10;;
3070;SDS011;1546;47.208;9.038;2023-05-07T15:31:14;7.30;;;2.88;;